createdAt,value
2023-01-18T00:02:06.933Z,5.68
2023-01-18T00:04:39.457Z,5.10
2023-01-18T00:07:14.887Z,4.53
2023-01-18T00:09:48.431Z,6.32
2023-01-18T00:12:24.672Z,4.88
2023-01-18T00:14:58.895Z,4.35
2023-01-18T00:17:32.350Z,7.00
2023-01-18T00:20:07.877Z,10.88
2023-01-18T00:22:43.993Z,6.85
2023-01-18T00:25:17.018Z,6.72
2023-01-18T00:27:52.147Z,5.22
2023-01-18T00:30:26.933Z,4.85
2023-01-18T00:32:59.672Z,5.38
2023-01-18T00:35:30.419Z,5.50
2023-01-18T00:38:02.595Z,5.78
2023-01-18T00:40:33.264Z,7.78
2023-01-18T00:43:20.588Z,6.55
2023-01-18T00:45:51.295Z,6.03
2023-01-18T00:48:22.212Z,5.78
2023-01-18T00:50:52.927Z,6.50
2023-01-18T00:53:25.175Z,5.28
2023-01-18T00:55:55.907Z,6.53
2023-01-18T00:58:26.529Z,4.70
2023-01-18T01:00:57.499Z,5.25
2023-01-18T01:03:27.971Z,5.20
2023-01-18T01:06:16.575Z,5.13
2023-01-18T01:08:51.362Z,5.22
2023-01-18T01:11:22.055Z,4.60
2023-01-18T01:14:09.330Z,7.18
2023-01-18T01:16:59.274Z,6.13
2023-01-18T01:19:47.225Z,4.57
2023-01-18T01:22:34.809Z,4.93
2023-01-18T01:25:24.122Z,6.55
2023-01-18T01:27:55.668Z,6.70
2023-01-18T01:30:26.459Z,5.70
2023-01-18T01:32:57.895Z,6.55
2023-01-18T01:35:28.794Z,6.50
2023-01-18T01:37:59.534Z,6.38
2023-01-18T01:40:34.281Z,7.03
2023-01-18T01:43:05.133Z,5.50
2023-01-18T01:45:35.916Z,6.57
2023-01-18T01:48:06.986Z,6.22
2023-01-18T01:50:40.453Z,5.63
2023-01-18T01:53:11.937Z,5.88
2023-01-18T01:55:44.474Z,5.72
2023-01-18T01:58:19.410Z,4.63
2023-01-18T02:00:49.982Z,4.95
2023-01-18T02:03:20.790Z,5.00
2023-01-18T02:05:55.474Z,5.18
2023-01-18T02:08:27.618Z,4.80
2023-01-18T02:10:59.888Z,4.40
2023-01-18T02:13:31.285Z,5.82
2023-01-18T02:16:13.632Z,7.95
2023-01-18T02:18:55.382Z,16.48
2023-01-18T02:21:31.527Z,10.45
2023-01-18T02:24:38.876Z,8.65
2023-01-18T02:27:22.419Z,6.38
2023-01-18T02:30:22.836Z,5.13
2023-01-18T02:33:09.184Z,4.13
2023-01-18T02:35:51.728Z,5.00
2023-01-18T02:38:29.115Z,5.82
2023-01-18T02:41:12.760Z,5.63
2023-01-18T02:44:03.281Z,4.93
2023-01-18T02:46:36.526Z,3.80
2023-01-18T02:49:10.708Z,4.13
2023-01-18T02:51:41.622Z,5.03
2023-01-18T02:54:17.227Z,5.80
2023-01-18T02:56:52.947Z,5.88
2023-01-18T02:59:28.237Z,5.63
2023-01-18T03:02:04.435Z,5.70
2023-01-18T03:04:39.645Z,6.30
2023-01-18T03:07:15.454Z,5.05
2023-01-18T03:09:47.641Z,5.05
2023-01-18T03:12:25.527Z,5.85
2023-01-18T03:15:05.914Z,4.32
2023-01-18T03:17:44.461Z,4.72
2023-01-18T03:20:17.978Z,4.60
2023-01-18T03:23:10.847Z,4.72
2023-01-18T03:25:43.674Z,4.32
2023-01-18T03:28:35.707Z,4.10
2023-01-18T03:31:28.375Z,5.00
2023-01-18T03:34:05.224Z,5.50
2023-01-18T03:36:39.251Z,6.35
2023-01-18T03:39:13.983Z,6.57
2023-01-18T03:41:49.320Z,6.47
2023-01-18T03:44:25.295Z,5.90
2023-01-18T03:46:56.371Z,6.30
2023-01-18T03:49:29.835Z,5.50
2023-01-18T03:52:17.875Z,5.47
2023-01-18T03:55:00.485Z,4.15
2023-01-18T03:57:35.837Z,5.03
2023-01-18T04:00:12.441Z,4.55
2023-01-18T04:02:43.517Z,3.97
2023-01-18T04:05:16.245Z,4.10
2023-01-18T04:07:47.344Z,4.25
2023-01-18T04:10:18.188Z,4.15
2023-01-18T04:12:49.151Z,4.53
2023-01-18T04:15:20.358Z,3.92
2023-01-18T04:17:54.041Z,4.35
2023-01-18T04:20:26.181Z,4.13
2023-01-18T04:22:57.865Z,3.83
2023-01-18T04:25:28.716Z,3.63
2023-01-18T04:27:59.292Z,3.67
2023-01-18T04:30:29.943Z,4.28
2023-01-18T04:33:00.974Z,3.67
2023-01-18T04:35:33.446Z,4.50
2023-01-18T04:38:05.354Z,3.85
2023-01-18T04:40:35.980Z,3.42
2023-01-18T04:43:06.579Z,4.10
2023-01-18T04:45:40.090Z,4.20
2023-01-18T04:48:10.856Z,3.70
2023-01-18T04:50:47.321Z,4.18
2023-01-18T04:53:18.165Z,6.00
2023-01-18T04:55:48.794Z,4.07
2023-01-18T04:58:19.291Z,6.03
2023-01-18T05:00:50.430Z,4.95
2023-01-18T05:03:21.072Z,5.18
2023-01-18T05:05:53.498Z,4.13
2023-01-18T05:08:24.104Z,5.47
2023-01-18T05:10:54.782Z,5.50
2023-01-18T05:13:28.111Z,4.70
2023-01-18T05:15:59.602Z,4.53
2023-01-18T05:18:30.706Z,4.70
2023-01-18T05:21:03.229Z,4.30
2023-01-18T05:23:33.810Z,5.32
2023-01-18T05:26:04.397Z,5.22
2023-01-18T05:28:34.974Z,5.03
2023-01-18T05:31:05.773Z,4.00
2023-01-18T05:33:36.521Z,4.47
2023-01-18T05:36:09.485Z,5.00
2023-01-18T05:38:40.029Z,5.25
2023-01-18T05:41:10.701Z,4.28
2023-01-18T05:43:41.328Z,4.57
2023-01-18T05:46:12.018Z,3.88
2023-01-18T05:48:42.528Z,3.38
2023-01-18T05:51:17.484Z,5.10
2023-01-18T05:53:47.979Z,5.75
2023-01-18T05:56:18.567Z,5.03
2023-01-18T05:58:49.086Z,4.55
2023-01-18T06:01:19.680Z,5.35
2023-01-18T06:03:52.857Z,4.80
2023-01-18T06:06:25.077Z,5.15
2023-01-18T06:08:56.125Z,3.13
2023-01-18T06:11:26.613Z,4.88
2023-01-18T06:13:57.247Z,4.85
2023-01-18T06:16:27.825Z,5.05
2023-01-18T06:18:58.386Z,4.40
2023-01-18T06:21:30.587Z,4.60
2023-01-18T06:24:00.999Z,4.35
2023-01-18T06:26:32.133Z,5.00
2023-01-18T06:29:02.952Z,4.65
2023-01-18T06:31:33.529Z,4.75
2023-01-18T06:34:10.098Z,3.47
2023-01-18T06:36:42.622Z,5.22
2023-01-18T06:39:14.131Z,5.20
2023-01-18T06:41:44.630Z,4.97
2023-01-18T06:44:15.234Z,4.82
2023-01-18T06:46:47.203Z,4.55
2023-01-18T06:49:18.086Z,4.57
2023-01-18T06:51:50.320Z,5.15
2023-01-18T06:54:20.863Z,5.05
2023-01-18T06:56:51.566Z,4.47
2023-01-18T06:59:22.109Z,4.93
2023-01-18T07:01:55.495Z,5.20
2023-01-18T07:04:26.205Z,5.63
2023-01-18T07:06:58.332Z,3.67
2023-01-18T07:09:28.746Z,4.57
2023-01-18T07:11:59.297Z,3.90
2023-01-18T07:14:29.991Z,4.28
2023-01-18T07:17:01.607Z,3.75
2023-01-18T07:19:32.136Z,3.70
2023-01-18T07:22:04.730Z,4.28
2023-01-18T07:24:35.266Z,4.38
2023-01-18T07:27:05.993Z,4.60
2023-01-18T07:29:37.141Z,4.75
2023-01-18T07:32:07.975Z,4.72
2023-01-18T07:34:38.495Z,4.93
2023-01-18T07:37:10.998Z,6.43
2023-01-18T07:39:41.504Z,4.55
2023-01-18T07:42:13.389Z,4.65
2023-01-18T07:44:43.889Z,5.65
2023-01-18T07:47:14.321Z,5.45
2023-01-18T07:49:46.125Z,6.28
2023-01-18T07:52:18.152Z,5.50
2023-01-18T07:54:51.497Z,5.68
2023-01-18T07:57:22.031Z,6.15
2023-01-18T07:59:52.866Z,6.30
2023-01-18T08:02:26.183Z,5.80
2023-01-18T08:04:58.006Z,6.32
2023-01-18T08:07:37.941Z,5.63
2023-01-18T08:10:23.226Z,6.00
2023-01-18T08:13:01.195Z,5.60
2023-01-18T08:15:32.312Z,6.00
2023-01-18T08:18:08.429Z,6.45
2023-01-18T08:20:38.946Z,6.28
2023-01-18T08:23:12.785Z,6.53
2023-01-18T08:25:44.335Z,6.10
2023-01-18T08:28:15.098Z,6.78
2023-01-18T08:30:52.767Z,6.38
2023-01-18T08:33:23.335Z,7.40
2023-01-18T08:35:55.878Z,7.05
2023-01-18T08:38:27.941Z,6.38
2023-01-18T08:40:58.415Z,6.22
2023-01-18T08:43:29.778Z,7.13
2023-01-18T08:46:00.210Z,7.57
2023-01-18T08:48:30.871Z,7.20
2023-01-18T08:51:07.449Z,6.78
2023-01-18T08:53:39.656Z,6.50
2023-01-18T08:56:19.487Z,7.00
2023-01-18T08:58:55.300Z,6.90
2023-01-18T09:01:29.162Z,7.45
2023-01-18T09:04:00.577Z,6.65
2023-01-18T09:06:33.304Z,7.03
2023-01-18T09:09:06.165Z,7.07
2023-01-18T09:11:38.884Z,10.43
2023-01-18T09:14:10.054Z,10.57
2023-01-18T09:16:41.281Z,13.43
2023-01-18T09:19:14.871Z,17.73
2023-01-18T09:21:49.539Z,18.15
2023-01-18T09:24:21.708Z,12.88
2023-01-18T09:26:54.413Z,13.63
2023-01-18T09:29:27.961Z,17.83
2023-01-18T09:32:01.106Z,26.52
2023-01-18T09:34:32.186Z,16.75
2023-01-18T09:37:08.607Z,9.45
2023-01-18T09:39:51.507Z,17.77
2023-01-18T09:44:21.849Z,12.52
2023-01-18T09:45:37.817Z,13.43
2023-01-18T09:48:18.361Z,7.80
2023-01-18T09:51:01.409Z,8.82
2023-01-18T09:53:45.478Z,8.35
2023-01-18T09:56:22.889Z,9.63
2023-01-18T09:59:04.906Z,10.48
2023-01-18T10:01:37.719Z,31.35
2023-01-18T10:04:18.085Z,26.52
2023-01-18T10:06:54.866Z,11.75
2023-01-18T10:09:29.905Z,15.90
2023-01-18T10:12:04.101Z,10.00
2023-01-18T10:14:49.541Z,9.25
2023-01-18T10:17:23.807Z,8.13
2023-01-18T10:20:17.798Z,11.68
2023-01-18T10:22:53.745Z,12.68
2023-01-18T10:25:33.981Z,16.73
2023-01-18T10:28:28.872Z,21.67
2023-01-18T10:31:19.473Z,35.08
2023-01-18T10:33:58.891Z,25.80
2023-01-18T10:36:33.583Z,14.73
2023-01-18T10:39:20.663Z,8.52
2023-01-18T10:42:06.375Z,7.60
2023-01-18T10:44:42.087Z,14.82
2023-01-18T10:47:17.801Z,17.88
2023-01-18T10:49:51.292Z,26.00
2023-01-18T10:52:27.008Z,15.63
2023-01-18T10:55:02.383Z,12.23
2023-01-18T10:57:36.943Z,8.32
2023-01-18T11:00:22.286Z,7.32
2023-01-18T11:02:58.651Z,8.15
2023-01-18T11:05:33.852Z,9.13
2023-01-18T11:08:26.039Z,7.57
2023-01-18T11:11:10.256Z,8.90
2023-01-18T11:13:46.250Z,6.82
2023-01-18T11:16:21.634Z,7.75
2023-01-18T11:19:06.354Z,7.57
2023-01-18T11:21:49.986Z,5.32
2023-01-18T11:24:26.828Z,5.95
2023-01-18T11:27:02.495Z,6.90
2023-01-18T11:29:35.414Z,7.95
2023-01-18T11:32:10.319Z,6.35
2023-01-18T11:34:47.310Z,8.75
2023-01-18T11:37:35.207Z,7.85
2023-01-18T11:40:30.656Z,5.43
2023-01-18T11:43:04.651Z,7.75
2023-01-18T11:45:42.620Z,7.65
2023-01-18T11:48:27.066Z,6.63
2023-01-18T11:51:02.693Z,7.78
2023-01-18T11:53:49.190Z,9.25
2023-01-18T11:56:31.365Z,6.50
2023-01-18T11:59:04.514Z,7.57
2023-01-18T12:01:59.879Z,7.70
2023-01-18T12:04:45.323Z,6.18
2023-01-18T12:07:29.335Z,6.85
2023-01-18T12:10:02.126Z,7.68
2023-01-18T12:12:54.640Z,8.05
2023-01-18T12:15:45.905Z,6.95
2023-01-18T12:18:33.989Z,6.97
2023-01-18T12:21:14.340Z,6.68
2023-01-18T12:24:10.434Z,7.00
2023-01-18T12:26:59.107Z,8.48
2023-01-18T12:29:51.012Z,8.73
2023-01-18T12:33:42.384Z,9.25
2023-01-18T12:36:36.678Z,8.80
2023-01-18T12:39:25.728Z,9.27
2023-01-18T12:42:03.779Z,10.13
2023-01-18T12:44:53.801Z,9.30
2023-01-18T12:47:43.058Z,8.63
2023-01-18T12:50:26.487Z,8.48
2023-01-18T12:53:02.451Z,9.68
2023-01-18T12:56:27.831Z,9.02
2023-01-18T12:59:01.250Z,10.38
2023-01-18T13:01:37.263Z,10.52
2023-01-18T13:04:14.201Z,10.13
2023-01-18T13:06:49.705Z,9.30
2023-01-18T13:09:28.323Z,11.07
2023-01-18T13:12:00.843Z,9.88
2023-01-18T13:14:38.835Z,10.60
2023-01-18T13:17:22.475Z,11.15
2023-01-18T13:20:01.269Z,10.60
2023-01-18T13:22:42.508Z,9.63
2023-01-18T13:25:33.110Z,11.90
2023-01-18T13:28:06.200Z,10.77
2023-01-18T13:30:50.169Z,11.88
2023-01-18T13:33:24.881Z,11.07
2023-01-18T13:35:58.005Z,11.13
2023-01-18T13:38:40.962Z,11.43
2023-01-18T13:45:32.111Z,9.68
2023-01-18T13:48:11.103Z,12.07
2023-01-18T13:50:53.694Z,10.60
2023-01-18T13:53:39.159Z,11.85
2023-01-18T13:56:38.686Z,9.88
2023-01-18T13:59:24.366Z,9.55
2023-01-18T14:05:43.961Z,9.95
2023-01-18T14:08:29.823Z,9.73
2023-01-18T14:11:08.065Z,9.13
2023-01-18T14:14:25.742Z,9.55
2023-01-18T14:17:09.287Z,8.45
2023-01-18T14:20:10.876Z,8.10
2023-01-18T14:22:58.526Z,8.80
2023-01-18T14:25:50.313Z,7.97
2023-01-18T14:28:30.240Z,9.02
2023-01-18T14:31:05.158Z,8.60
2023-01-18T14:33:40.542Z,8.23
2023-01-18T14:36:23.427Z,7.25
2023-01-18T14:39:14.873Z,6.90
2023-01-18T14:41:48.096Z,7.18
2023-01-18T14:44:22.311Z,8.05
2023-01-18T14:47:10.710Z,8.45
2023-01-18T14:49:52.083Z,6.97
2023-01-18T14:52:26.461Z,7.30
2023-01-18T14:55:01.877Z,9.18
2023-01-18T14:57:33.264Z,8.20
2023-01-18T15:00:19.872Z,7.47
2023-01-18T15:02:50.889Z,9.73
2023-01-18T15:05:32.812Z,7.63
2023-01-18T15:08:04.513Z,8.20
2023-01-18T15:10:40.188Z,8.07
2023-01-18T15:13:10.973Z,7.75
2023-01-18T15:15:45.633Z,7.10
2023-01-18T15:18:23.561Z,7.90
2023-01-18T15:21:00.606Z,7.68
2023-01-18T15:23:36.739Z,7.28
2023-01-18T15:26:08.379Z,7.38
2023-01-18T15:28:44.038Z,8.05
2023-01-18T15:31:19.146Z,7.43
2023-01-18T15:33:54.716Z,6.53
2023-01-18T15:36:38.441Z,6.93
2023-01-18T15:39:09.435Z,7.53
2023-01-18T15:41:41.500Z,8.07
2023-01-18T15:44:39.623Z,8.07
2023-01-18T15:47:25.813Z,7.05
2023-01-18T15:49:58.951Z,7.97
2023-01-18T15:52:48.757Z,8.07
2023-01-18T15:58:03.817Z,6.20
2023-01-18T16:00:42.182Z,7.07
2023-01-18T16:03:23.059Z,7.15
2023-01-18T16:06:05.844Z,6.60
2023-01-18T16:08:40.439Z,5.90
2023-01-18T16:11:32.026Z,6.75
2023-01-18T16:14:09.149Z,7.35
2023-01-18T16:16:42.386Z,7.25
2023-01-18T16:19:25.325Z,6.10
2023-01-18T16:22:02.850Z,4.78
2023-01-18T16:24:41.720Z,5.82
2023-01-18T16:27:17.666Z,7.70
2023-01-18T16:29:50.726Z,10.23
2023-01-18T16:32:36.235Z,9.38
2023-01-18T16:35:18.126Z,7.30
2023-01-18T16:37:53.357Z,9.38
2023-01-18T16:40:30.997Z,8.32
2023-01-18T16:43:04.034Z,7.80
2023-01-18T16:45:37.497Z,5.82
2023-01-18T16:48:09.749Z,7.75
2023-01-18T16:50:42.016Z,7.57
2023-01-18T16:53:13.246Z,6.50
2023-01-18T16:55:49.231Z,7.30
2023-01-18T16:58:22.543Z,7.15
2023-01-18T17:00:58.268Z,7.22
2023-01-18T17:03:31.792Z,6.25
2023-01-18T17:06:05.270Z,6.97
2023-01-18T17:08:38.279Z,6.25
2023-01-18T17:11:13.545Z,6.07
2023-01-18T17:13:51.540Z,6.35
2023-01-18T17:16:23.285Z,7.03
2023-01-18T17:18:55.359Z,6.93
2023-01-18T17:21:26.152Z,6.70
2023-01-18T17:23:57.536Z,6.15
2023-01-18T17:26:34.021Z,6.45
2023-01-18T17:29:05.013Z,6.82
2023-01-18T17:31:41.671Z,6.30
2023-01-18T17:34:27.736Z,6.68
2023-01-18T17:37:00.320Z,6.80
2023-01-18T17:39:43.918Z,6.38
2023-01-18T17:42:30.935Z,6.80
2023-01-18T17:45:10.769Z,7.50
2023-01-18T17:50:20.081Z,7.97
2023-01-18T17:52:53.828Z,7.82
2023-01-18T17:55:34.622Z,6.50
2023-01-18T17:58:09.618Z,8.45
2023-01-18T18:00:40.592Z,7.18
2023-01-18T18:03:11.478Z,7.82
2023-01-18T18:05:42.120Z,7.88
2023-01-18T18:08:15.370Z,7.30
2023-01-18T18:10:46.491Z,7.50
2023-01-18T18:13:22.098Z,7.55
2023-01-18T18:15:53.220Z,6.63
2023-01-18T18:18:24.464Z,7.40
2023-01-18T18:21:07.555Z,7.30
2023-01-18T18:23:38.216Z,7.78
2023-01-18T18:26:12.085Z,6.50
2023-01-18T18:28:45.269Z,7.13
2023-01-18T18:31:17.455Z,5.78
2023-01-18T18:33:48.291Z,5.93
2023-01-18T18:36:19.096Z,6.75
2023-01-18T18:38:50.597Z,5.55
2023-01-18T18:41:21.458Z,7.30
2023-01-18T18:43:54.660Z,6.32
2023-01-18T18:46:27.945Z,6.78
2023-01-18T18:49:01.296Z,6.20
2023-01-18T18:51:31.760Z,6.53
2023-01-18T18:54:06.556Z,6.10
2023-01-18T18:56:40.133Z,6.30
2023-01-18T18:59:15.645Z,6.20
2023-01-18T19:01:52.441Z,7.05
2023-01-18T19:04:25.757Z,6.82
2023-01-18T19:06:59.022Z,6.57
2023-01-18T19:09:32.700Z,6.70
2023-01-18T19:12:03.212Z,7.00
2023-01-18T19:14:35.443Z,6.55
2023-01-18T19:17:09.145Z,6.38
2023-01-18T19:19:40.830Z,5.38
2023-01-18T19:22:14.828Z,6.00
2023-01-18T19:24:45.280Z,5.85
2023-01-18T19:27:18.441Z,6.25
2023-01-18T19:29:50.648Z,6.78
2023-01-18T19:32:22.008Z,7.63
2023-01-18T19:34:52.480Z,9.13
2023-01-18T19:37:22.992Z,8.50
2023-01-18T19:39:53.475Z,7.90
2023-01-18T19:42:26.849Z,7.00
2023-01-18T19:44:59.537Z,7.05
2023-01-18T19:47:37.373Z,6.95
2023-01-18T19:50:08.741Z,6.43
2023-01-18T19:52:39.389Z,5.75
2023-01-18T19:55:10.770Z,7.07
2023-01-18T19:57:42.904Z,7.03
2023-01-18T20:00:17.423Z,8.80
2023-01-18T20:02:50.960Z,8.70
2023-01-18T20:05:21.672Z,9.35
2023-01-18T20:07:54.691Z,6.57
2023-01-18T20:10:25.286Z,9.68
2023-01-18T20:12:55.767Z,9.40
2023-01-18T20:15:29.950Z,8.23
2023-01-18T20:18:00.412Z,6.60
2023-01-18T20:20:32.727Z,7.07
2023-01-18T20:23:05.861Z,5.50
2023-01-18T20:25:36.416Z,7.88
2023-01-18T20:28:07.089Z,6.93
2023-01-18T20:30:39.706Z,6.53
2023-01-18T20:33:10.262Z,6.50
2023-01-18T20:35:41.695Z,6.55
2023-01-18T20:38:12.422Z,6.78
2023-01-18T20:40:43.474Z,6.55
2023-01-18T20:43:13.978Z,5.80
2023-01-18T20:45:45.997Z,6.32
2023-01-18T20:48:16.646Z,6.53
2023-01-18T20:50:49.469Z,6.15
2023-01-18T20:53:23.056Z,5.32
2023-01-18T20:55:58.489Z,4.95
2023-01-18T20:58:28.925Z,6.95
2023-01-18T21:01:06.421Z,6.10
2023-01-18T21:03:38.817Z,6.65
2023-01-18T21:06:09.781Z,7.45
2023-01-18T21:08:41.565Z,5.20
2023-01-18T21:11:16.050Z,5.68
2023-01-18T21:13:46.638Z,7.28
2023-01-18T21:16:18.998Z,6.00
2023-01-18T21:18:49.615Z,7.18
2023-01-18T21:21:20.048Z,9.07
2023-01-18T21:23:50.663Z,10.32
2023-01-18T21:26:21.155Z,9.35
2023-01-18T21:28:51.698Z,11.40
2023-01-18T21:31:23.923Z,8.77
2023-01-18T21:33:54.982Z,11.50
2023-01-18T21:36:25.552Z,7.28
2023-01-18T21:38:56.174Z,10.23
2023-01-18T21:41:43.051Z,6.72
2023-01-18T21:44:31.404Z,7.15
2023-01-18T21:47:04.440Z,5.82
2023-01-18T21:50:15.967Z,6.95
2023-01-18T21:52:58.849Z,6.55
2023-01-18T21:55:29.191Z,4.85
2023-01-18T21:58:16.640Z,5.30
2023-01-18T22:00:47.162Z,6.72
2023-01-18T22:03:19.377Z,5.40
2023-01-18T22:05:49.784Z,5.22
2023-01-18T22:08:20.270Z,7.18
2023-01-18T22:10:50.696Z,6.95
2023-01-18T22:13:24.647Z,10.45
2023-01-18T22:15:55.221Z,8.25
2023-01-18T22:18:27.378Z,9.25
2023-01-18T22:20:58.708Z,9.30
2023-01-18T22:23:29.219Z,8.48
2023-01-18T22:26:00.181Z,10.23
2023-01-18T22:28:30.611Z,8.77
2023-01-18T22:31:01.929Z,7.95
2023-01-18T22:33:34.044Z,7.97
2023-01-18T22:36:05.616Z,9.50
2023-01-18T22:38:36.102Z,8.23
2023-01-18T22:41:08.291Z,11.68
2023-01-18T22:43:39.263Z,13.23
2023-01-18T22:46:10.709Z,11.95
2023-01-18T22:48:43.423Z,11.38
2023-01-18T22:51:17.242Z,11.73
2023-01-18T22:53:48.627Z,9.27
2023-01-18T22:56:21.216Z,11.02
2023-01-18T22:58:52.473Z,11.20
2023-01-18T23:01:25.816Z,10.30
2023-01-18T23:03:59.879Z,10.40
2023-01-18T23:06:42.836Z,9.38
2023-01-18T23:09:13.964Z,8.95
2023-01-18T23:11:45.517Z,8.57
2023-01-18T23:14:32.794Z,9.57
2023-01-18T23:17:19.938Z,9.63
2023-01-18T23:19:52.101Z,9.90
2023-01-18T23:22:22.658Z,8.45
2023-01-18T23:24:53.294Z,9.70
2023-01-18T23:27:23.842Z,9.85
2023-01-18T23:29:58.084Z,8.98
2023-01-18T23:32:31.242Z,8.18
2023-01-18T23:35:03.597Z,9.18
2023-01-18T23:37:34.109Z,9.98
2023-01-18T23:40:21.408Z,10.18
2023-01-18T23:43:08.632Z,10.18
2023-01-18T23:45:55.754Z,8.80
2023-01-18T23:48:43.057Z,9.32
2023-01-18T23:51:32.026Z,9.68
2023-01-18T23:54:20.648Z,9.13
2023-01-18T23:56:51.211Z,9.00
2023-01-18T23:59:22.286Z,11.15
